Friday, November 24, 2017, 5:29 AM GMT
Back to Local

CWVU, Brier Island, N. S.

Location: , , Canada Lat: 44.286
Local Time: 5:29 AM GMT ( 5:29 GMT) Lon: -66.347
Time Zone: GMT Elev: 52 ft

Show me the last for .
Show Coded

Time T Td Feel RH Dir Speed Gust Alt SLP Vis Weather Sky Remarks
2017-11-24 05:00 35 26 25 67 290° 17 - - 29.93 0 Peak wind: 27 mph (24 kts) from 290° at 01 min
2017-11-24 04:00 36 26 25 66 290° 21 - - 29.93 0 Peak wind: 28 mph (25 kts) from 280° at 24 min
2017-11-24 03:00 36 25 23 64 280° 21 26 - 29.93 0 Peak wind: 26 mph (23 kts) from 280° at 52 min
2017-11-24 02:00 36 25 24 65 280° 20 25 - 29.93 0 Peak wind: 25 mph (22 kts) from 280° at 06 min
2017-11-24 01:00 36 26 26 66 280° 20 - - 29.94 0 Peak wind: 25 mph (22 kts) from 290° at 23 min
2017-11-24 00:00 37 27 26 67 280° 17 23 - 29.94 0 Peak wind: 23 mph (20 kts) from 280° at 59 min
2017-11-23 23:00 35 28 25 75 270° 15 - - 29.94 0 Peak wind: 19 mph (17 kts) from 260° at 58 min
2017-11-23 22:00 35 28 26 76 270° 12 - - 29.93 0 None
2017-11-23 21:00 36 27 28 70 280° 12 - - 29.94 0 None
2017-11-23 20:00 36 27 27 71 280° 13 - - 29.93 0 None
2017-11-23 19:00 35 28 24 75 290° 13 20 - 29.91 0 Peak wind: 20 mph (18 kts) from 310° at 00 min
2017-11-23 18:00 36 28 25 71 300° 15 21 - 29.89 0 Peak wind: 23 mph (20 kts) from 290° at 32 min
2017-11-23 17:00 35 27 24 71 300° 17 23 - 29.91 0 Peak wind: 26 mph (23 kts) from 300° at 09 min
2017-11-23 16:00 37 30 26 75 290° 22 - - 29.90 0 Peak wind: 29 mph (26 kts) from 290° at 04 min
2017-11-23 15:00 38 33 26 82 290° 23 29 - 29.91 0 Peak wind: 31 mph (27 kts) from 280° at 38 min
2017-11-23 14:00 38 31 27 76 300° 22 - - 29.90 0 Peak wind: 34 mph (30 kts) from 300° at 09 min
2017-11-23 13:00 38 32 25 78 300° 28 36 - 29.88 0 Peak wind: 41 mph (36 kts) from 300° at 01 min
Pressure rising rapidly
2017-11-23 12:00 39 33 26 81 300° 36 - - 29.82 0 Peak wind: 42 mph (37 kts) from 290° at 42 min
2017-11-23 11:00 40 35 26 83 300° 36 43 - 29.79 0 Peak wind: 44 mph (39 kts) from 300° at 40 min
2017-11-23 10:00 40 36 26 84 300° 36 44 - 29.75 0 Peak wind: 46 mph (40 kts) from 300° at 44 min
2017-11-23 09:00 42 38 29 88 300° 37 43 - 29.72 0 Peak wind: 48 mph (42 kts) from 300° at 23 min
2017-11-23 08:00 42 40 29 90 290° 43 52 - 29.67 0 Peak wind: 56 mph (49 kts) from 290° at 08 min
2017-11-23 07:00 42 39 28 90 290° 45 52 - 29.62 0 Peak wind: 52 mph (46 kts) from 290° at 40 min
Pressure rising rapidly
2017-11-23 06:00 43 41 31 90 310° 40 49 - 29.54 0 Peak wind: 49 mph (43 kts) from 310° at 59 min

Support USWX by starting your Amazon purchase here.